Time;durP1;ratioP1;P1;durP2;ratioP2;P2;SDS_P1;SDS_P2;PMS_P1;PMS_P2;Temp;Humidity;BMP_temperature;BMP_pressure;BME280_temperature;BME280_humidity;BME280_pressure;Samples;Min_cycle;Max_cycle;Signal;HPM_P1;HPM_P2
2023/03/04 00:01:30;;;;;;;235.55;121.32;;;;;;;4.38;100.00;101284.97;5054097;28;20048;-78
2023/03/04 00:03:56;;;;;;;206.18;113.53;;;;;;;4.42;100.00;101281.09;5054128;28;20407;-78
2023/03/04 00:06:23;;;;;;;215.23;118.80;;;;;;;4.33;100.00;101287.25;5053883;28;20107;-78
2023/03/04 00:08:50;;;;;;;219.68;123.00;;;;;;;4.22;100.00;101280.41;5054081;28;20041;-78
2023/03/04 00:11:18;;;;;;;212.07;116.68;;;;;;;4.28;100.00;101277.16;5054194;28;20048;-78
2023/03/04 00:13:45;;;;;;;225.90;125.35;;;;;;;4.32;100.00;101283.78;5054123;28;20053;-78
2023/03/04 00:16:11;;;;;;;218.57;117.97;;;;;;;4.38;100.00;101284.97;5054033;28;20076;-78
2023/03/04 00:18:38;;;;;;;219.65;123.82;;;;;;;4.35;100.00;101275.59;5053918;28;20075;-78
2023/03/04 00:21:05;;;;;;;227.95;125.13;;;;;;;4.38;100.00;101278.91;5054108;28;20053;-78
2023/03/04 00:23:32;;;;;;;229.50;123.10;;;;;;;4.34;100.00;101275.75;5054202;28;20048;-78
2023/03/04 00:25:58;;;;;;;219.40;118.47;;;;;;;4.36;100.00;101273.81;5053863;28;20045;-78
2023/03/04 00:28:26;;;;;;;228.88;126.97;;;;;;;4.34;100.00;101267.84;5054173;28;20152;-78
2023/03/04 00:30:53;;;;;;;232.88;126.50;;;;;;;4.39;100.00;101273.50;5053995;28;20496;-78
2023/03/04 00:33:20;;;;;;;233.43;126.13;;;;;;;4.18;100.00;101268.53;5053623;28;20110;-78
2023/03/04 00:35:47;;;;;;;227.82;125.18;;;;;;;4.35;100.00;101274.75;5053223;28;20052;-78
2023/03/04 00:38:13;;;;;;;224.88;131.57;;;;;;;4.40;100.00;101274.31;5053447;28;20052;-78
2023/03/04 00:40:40;;;;;;;227.48;127.95;;;;;;;4.16;100.00;101269.66;5053652;28;20422;-78
2023/03/04 00:43:07;;;;;;;231.88;124.57;;;;;;;4.29;100.00;101275.38;5053040;28;20110;-78
2023/03/04 00:45:35;;;;;;;236.35;129.02;;;;;;;4.36;100.00;101272.00;5053363;28;20468;-78
2023/03/04 00:48:01;;;;;;;232.50;132.13;;;;;;;4.43;100.00;101274.84;5053329;28;20048;-78
2023/03/04 00:50:28;;;;;;;253.18;133.88;;;;;;;4.45;100.00;101274.66;5053492;28;20049;-78
2023/03/04 00:52:55;;;;;;;282.35;137.20;;;;;;;4.39;100.00;101270.00;5053267;28;20048;-78
2023/03/04 00:55:21;;;;;;;247.65;126.65;;;;;;;4.44;100.00;101270.41;5053045;28;20111;-78
2023/03/04 00:57:48;;;;;;;231.10;124.82;;;;;;;4.28;100.00;101273.72;5052923;28;20514;-78
2023/03/04 01:00:16;;;;;;;232.88;130.30;;;;;;;4.34;100.00;101273.94;5053147;28;20045;-78
2023/03/04 01:02:44;;;;;;;229.18;121.35;;;;;;;4.43;100.00;101272.22;5052247;28;20518;-78
2023/03/04 01:05:11;;;;;;;224.57;116.32;;;;;;;4.41;100.00;101268.88;5053173;28;20134;-78
2023/03/04 01:07:38;;;;;;;220.00;122.80;;;;;;;4.42;100.00;101274.97;5053039;28;20079;-78
2023/03/04 01:10:06;;;;;;;208.95;123.60;;;;;;;4.40;100.00;101274.31;5053280;28;20103;-78
2023/03/04 01:12:33;;;;;;;210.88;114.80;;;;;;;4.46;100.00;101268.44;5052969;28;20114;-78
2023/03/04 01:15:00;;;;;;;206.32;111.28;;;;;;;4.52;100.00;101267.84;5053303;28;20053;-78
2023/03/04 01:17:27;;;;;;;212.93;119.80;;;;;;;4.51;100.00;101272.28;5052862;28;20049;-78
2023/03/04 01:19:55;;;;;;;209.63;116.10;;;;;;;4.52;100.00;101275.72;5052747;28;20116;-78
2023/03/04 01:22:22;;;;;;;205.55;117.90;;;;;;;4.49;100.00;101270.78;5052842;28;20575;-78
2023/03/04 01:24:49;;;;;;;199.10;114.95;;;;;;;4.38;100.00;101271.81;5053126;28;20053;-78
2023/03/04 01:27:15;;;;;;;203.40;112.25;;;;;;;4.46;100.00;101271.06;5052795;28;20045;-78
2023/03/04 01:29:42;;;;;;;208.15;119.18;;;;;;;4.47;100.00;101257.75;5052803;28;20064;-78
2023/03/04 01:32:09;;;;;;;197.13;115.40;;;;;;;4.52;100.00;101257.31;5052881;28;20100;-78
2023/03/04 01:34:36;;;;;;;196.07;111.55;;;;;;;4.40;100.00;101254.09;5052693;28;20057;-78
2023/03/04 01:37:04;;;;;;;203.15;119.00;;;;;;;4.42;100.00;101251.28;5052802;28;20136;-78
2023/03/04 01:39:30;;;;;;;203.80;124.85;;;;;;;4.49;100.00;101252.34;5052608;28;20060;-78
2023/03/04 01:41:58;;;;;;;195.68;116.88;;;;;;;4.54;100.00;101255.38;5052890;28;20048;-78
2023/03/04 01:44:25;;;;;;;191.73;108.20;;;;;;;4.50;100.00;101257.44;5052943;28;20053;-78
2023/03/04 01:46:53;;;;;;;185.15;106.20;;;;;;;4.51;100.00;101253.88;5052752;28;20407;-78
2023/03/04 01:49:20;;;;;;;186.55;111.57;;;;;;;4.52;100.00;101249.44;5052649;28;20053;-78
2023/03/04 01:51:49;;;;;;;193.73;117.38;;;;;;;4.51;100.00;101243.34;5053060;28;20103;-78
2023/03/04 01:54:18;;;;;;;187.80;107.40;;;;;;;4.51;100.00;101243.34;5052271;28;20049;-78
2023/03/04 01:56:46;;;;;;;178.23;103.70;;;;;;;4.46;100.00;101237.69;5053043;28;20053;-78
2023/03/04 01:59:15;;;;;;;177.13;106.15;;;;;;;4.42;100.00;101228.47;5052554;28;20498;-78
2023/03/04 02:01:44;;;;;;;170.23;104.75;;;;;;;4.47;100.00;101234.09;5052304;28;20060;-78
2023/03/04 02:04:11;;;;;;;169.35;97.88;;;;;;;4.46;100.00;101229.00;5052757;28;20049;-78
2023/03/04 02:06:40;;;;;;;171.82;99.63;;;;;;;4.39;100.00;101235.81;5052555;28;20049;-78
2023/03/04 02:09:07;;;;;;;167.57;108.38;;;;;;;4.21;100.00;101238.50;5052631;28;20110;-78
2023/03/04 02:11:37;;;;;;;163.20;106.18;;;;;;;4.29;100.00;101238.53;5052674;28;20049;-78
2023/03/04 02:14:04;;;;;;;169.85;97.75;;;;;;;4.35;100.00;101240.56;5053014;28;20052;-78
2023/03/04 02:16:32;;;;;;;166.38;96.70;;;;;;;4.38;100.00;101226.28;5056286;28;20099;-78
2023/03/04 02:18:59;;;;;;;182.23;106.97;;;;;;;4.33;100.00;101232.03;5055916;28;20107;-78
2023/03/04 02:21:28;;;;;;;180.32;113.72;;;;;;;4.27;100.00;101230.81;5056371;28;20048;-78
2023/03/04 02:24:04;;;;;;;170.32;103.85;;;;;;;4.36;100.00;101229.09;5056498;28;20131;-78
2023/03/04 02:26:33;;;;;;;182.75;111.30;;;;;;;4.29;100.00;101244.63;5056378;28;20049;-78
2023/03/04 02:29:01;;;;;;;171.38;102.95;;;;;;;4.18;100.00;101239.63;5055874;28;20099;-78
2023/03/04 02:31:31;;;;;;;181.00;103.60;;;;;;;4.28;100.00;101234.28;5055894;28;20494;-78
2023/03/04 02:34:01;;;;;;;161.82;95.93;;;;;;;4.26;100.00;101241.47;5056098;28;20098;-78
2023/03/04 02:36:28;;;;;;;198.65;108.85;;;;;;;4.26;100.00;101242.31;5055615;28;20449;-78
2023/03/04 02:39:00;;;;;;;183.27;111.63;;;;;;;4.29;100.00;101235.91;5055558;28;20053;-78
2023/03/04 02:41:29;;;;;;;182.00;110.40;;;;;;;4.31;100.00;101239.22;5055262;28;20048;-78
2023/03/04 02:43:57;;;;;;;193.00;111.85;;;;;;;4.28;100.00;101239.53;5055536;28;20045;-78
2023/03/04 02:46:24;;;;;;;218.15;123.25;;;;;;;4.30;100.00;101229.69;5055474;28;20095;-78
2023/03/04 02:48:51;;;;;;;197.50;119.53;;;;;;;4.34;100.00;101231.84;5055797;28;20056;-78
2023/03/04 02:51:18;;;;;;;235.25;136.82;;;;;;;4.31;100.00;101228.72;5055553;28;20049;-78
2023/03/04 02:53:45;;;;;;;236.25;130.23;;;;;;;4.34;100.00;101231.84;5055210;28;20106;-78
2023/03/04 02:56:12;;;;;;;177.80;104.95;;;;;;;4.09;100.00;101230.84;5055283;28;20107;-78
2023/03/04 02:58:40;;;;;;;185.13;106.82;;;;;;;4.21;100.00;101226.19;5055291;28;20052;-78
2023/03/04 03:01:08;;;;;;;182.25;115.07;;;;;;;4.22;100.00;101227.81;5055219;28;20560;-78
2023/03/04 03:03:34;;;;;;;173.98;98.03;;;;;;;4.10;100.00;101223.78;5055555;28;20130;-78
2023/03/04 03:06:01;;;;;;;168.27;99.25;;;;;;;4.26;100.00;101228.34;5055312;28;20411;-78
2023/03/04 03:08:28;;;;;;;211.55;125.32;;;;;;;4.24;100.00;101230.31;5055312;28;20407;-78
2023/03/04 03:10:55;;;;;;;217.23;131.55;;;;;;;4.34;100.00;101225.78;5055234;28;20457;-78
2023/03/04 03:13:21;;;;;;;200.35;116.10;;;;;;;4.18;100.00;101220.41;5055237;28;20049;-78
2023/03/04 03:15:48;;;;;;;197.95;112.95;;;;;;;4.10;100.00;101219.34;5055048;28;20053;-78
2023/03/04 03:18:16;;;;;;;226.77;136.02;;;;;;;4.29;100.00;101222.78;5055075;28;20480;-78
2023/03/04 03:20:43;;;;;;;233.30;134.60;;;;;;;4.28;100.00;101216.69;5055051;28;20110;-78
2023/03/04 03:23:09;;;;;;;212.35;125.30;;;;;;;4.26;100.00;101223.06;5054854;28;20118;-78
2023/03/04 03:25:36;;;;;;;208.63;120.60;;;;;;;4.32;100.00;101223.28;5054679;28;20069;-78
2023/03/04 03:28:03;;;;;;;194.32;117.90;;;;;;;4.35;100.00;101225.59;5054795;28;20049;-78
2023/03/04 03:30:30;;;;;;;222.35;129.07;;;;;;;4.32;100.00;101219.84;5054880;28;20045;-78
2023/03/04 03:32:57;;;;;;;204.68;123.32;;;;;;;4.38;100.00;101227.09;5054711;28;20053;-78
2023/03/04 03:35:25;;;;;;;212.65;124.97;;;;;;;4.42;100.00;101220.59;5054824;28;20045;-78
2023/03/04 03:37:52;;;;;;;210.88;120.82;;;;;;;4.36;100.00;101223.81;5054497;28;20057;-78
2023/03/04 03:40:18;;;;;;;211.10;126.68;;;;;;;4.35;100.00;101225.59;5054754;28;20111;-78
2023/03/04 03:42:45;;;;;;;211.38;119.80;;;;;;;4.35;100.00;101228.25;5054690;28;20114;-78
2023/03/04 03:45:12;;;;;;;193.43;116.10;;;;;;;4.34;100.00;101217.88;5054783;28;20057;-78
2023/03/04 03:47:39;;;;;;;199.48;113.63;;;;;;;4.36;100.00;101221.19;5054621;28;20128;-78
2023/03/04 03:50:06;;;;;;;182.63;109.75;;;;;;;4.32;100.00;101215.41;5054375;28;20407;-78
2023/03/04 03:52:35;;;;;;;182.15;113.75;;;;;;;4.38;100.00;101216.59;5054642;28;20049;-78
2023/03/04 03:55:01;;;;;;;176.07;104.13;;;;;;;4.49;100.00;101213.72;5054452;28;20300;-78
2023/03/04 03:57:28;;;;;;;178.18;111.03;;;;;;;4.52;100.00;101207.34;5050600;28;20168;-78
2023/03/04 03:59:55;;;;;;;165.70;103.68;;;;;;;4.47;100.00;101215.66;5034332;28;20103;-78
2023/03/04 04:02:22;;;;;;;163.07;104.05;;;;;;;4.59;100.00;101216.25;5033987;28;20577;-78
2023/03/04 04:04:49;;;;;;;162.25;90.85;;;;;;;4.52;100.00;101212.59;5034162;28;20519;-78
2023/03/04 04:07:16;;;;;;;155.77;95.75;;;;;;;4.49;100.00;101213.72;5034050;28;20096;-78
2023/03/04 04:09:44;;;;;;;180.07;108.28;;;;;;;4.45;100.00;101209.75;5034140;28;20049;-78
2023/03/04 04:12:14;;;;;;;178.68;111.43;;;;;;;4.59;100.00;101208.34;5034319;28;20116;-78
2023/03/04 04:14:41;;;;;;;153.65;100.90;;;;;;;4.57;100.00;101211.16;5034118;28;20041;-78
2023/03/04 04:17:08;;;;;;;161.32;99.07;;;;;;;4.59;100.00;101205.72;5034195;28;20049;-78
2023/03/04 04:19:35;;;;;;;156.27;104.18;;;;;;;4.52;100.00;101209.97;5034238;28;20053;-78
2023/03/04 04:22:01;;;;;;;167.85;107.07;;;;;;;4.55;100.00;101213.09;5034180;28;20053;-78
2023/03/04 04:24:28;;;;;;;157.32;102.75;;;;;;;4.58;100.00;101209.34;5033820;28;20049;-78
2023/03/04 04:26:57;;;;;;;145.75;94.90;;;;;;;4.69;100.00;101203.84;5033716;28;20553;-78
2023/03/04 04:29:24;;;;;;;142.45;94.63;;;;;;;4.62;100.00;101207.22;5033811;28;20055;-78
2023/03/04 04:31:51;;;;;;;156.48;106.72;;;;;;;4.57;100.00;101210.34;5033784;28;20107;-78
2023/03/04 04:34:17;;;;;;;151.13;96.93;;;;;;;4.61;100.00;101203.78;5033888;28;20049;-78
2023/03/04 04:36:44;;;;;;;148.73;99.22;;;;;;;4.64;100.00;101214.00;5033622;28;20058;-78
2023/03/04 04:39:11;;;;;;;146.43;96.38;;;;;;;4.69;100.00;101213.50;5032783;28;20049;-78
2023/03/04 04:41:40;;;;;;;131.27;89.07;;;;;;;4.62;100.00;101218.56;5033965;28;20056;-78
2023/03/04 04:44:09;;;;;;;132.63;87.40;;;;;;;4.64;100.00;101213.16;5033616;28;20470;-78
2023/03/04 04:46:36;;;;;;;137.60;86.80;;;;;;;4.66;100.00;101214.66;5033700;28;20046;-78
2023/03/04 04:49:03;;;;;;;136.23;86.38;;;;;;;4.65;100.00;101213.00;5033678;28;20049;-78
2023/03/04 04:51:30;;;;;;;150.13;95.20;;;;;;;4.62;100.00;101217.75;5033725;28;20053;-78
2023/03/04 04:53:58;;;;;;;150.32;96.75;;;;;;;4.54;100.00;101234.31;5033073;28;20045;-78
2023/03/04 04:56:25;;;;;;;145.95;87.72;;;;;;;4.63;100.00;101245.69;5033103;28;20099;-78
2023/03/04 04:58:53;;;;;;;131.70;84.32;;;;;;;4.66;100.00;101242.75;5033106;28;20049;-78
2023/03/04 05:01:21;;;;;;;116.18;78.75;;;;;;;4.71;100.00;101238.69;5033234;28;20503;-78
2023/03/04 05:03:51;;;;;;;129.32;83.13;;;;;;;4.45;100.00;101246.59;5033187;28;20133;-78
2023/03/04 05:06:19;;;;;;;138.93;86.35;;;;;;;4.52;100.00;101237.09;5033474;28;20489;-78
2023/03/04 05:08:46;;;;;;;138.15;88.60;;;;;;;4.67;100.00;101236.53;5032971;28;20046;-78
2023/03/04 05:11:12;;;;;;;132.10;86.40;;;;;;;4.67;100.00;101237.34;5033246;28;20045;-78
2023/03/04 05:13:39;;;;;;;128.00;81.35;;;;;;;4.66;100.00;101243.63;5033600;28;20049;-78
2023/03/04 05:16:07;;;;;;;124.07;83.35;;;;;;;4.72;100.00;101240.34;5032906;28;20104;-78
2023/03/04 05:18:35;;;;;;;134.75;88.15;;;;;;;4.76;100.00;101246.13;5033308;28;20045;-78
2023/03/04 05:21:03;;;;;;;132.65;87.38;;;;;;;4.81;100.00;101246.47;5033030;28;20057;-78
2023/03/04 05:23:32;;;;;;;132.07;87.30;;;;;;;4.87;100.00;101239.78;5032641;28;20107;-78
2023/03/04 05:25:59;;;;;;;146.15;99.32;;;;;;;4.82;100.00;101241.06;5033027;28;20049;-78
2023/03/04 05:28:26;;;;;;;134.95;92.72;;;;;;;4.74;100.00;101241.00;5033432;28;20473;-78
2023/03/04 05:30:53;;;;;;;137.18;84.47;;;;;;;4.65;100.00;101244.56;5033083;28;20049;-78
2023/03/04 05:33:20;;;;;;;136.30;85.25;;;;;;;4.71;100.00;101238.69;5033025;28;20112;-78
2023/03/04 05:35:49;;;;;;;134.20;89.80;;;;;;;4.80;100.00;101250.91;5032962;28;20498;-78
2023/03/04 05:38:18;;;;;;;152.38;97.30;;;;;;;4.81;100.00;101242.06;5033400;28;20100;-78
2023/03/04 05:40:45;;;;;;;134.77;88.18;;;;;;;4.81;100.00;101243.84;5032808;28;20103;-78
2023/03/04 05:43:13;;;;;;;125.80;79.13;;;;;;;4.93;100.00;101247.91;5032725;28;20058;-78
2023/03/04 05:45:40;;;;;;;134.80;82.70;;;;;;;4.97;100.00;101245.78;5032953;28;20045;-78
2023/03/04 05:48:07;;;;;;;130.10;84.30;;;;;;;4.96;100.00;101250.22;5032523;28;20045;-78
2023/03/04 05:50:35;;;;;;;128.00;83.32;;;;;;;5.07;100.00;101254.38;5036213;28;20042;-78
2023/03/04 05:53:03;;;;;;;142.77;87.35;;;;;;;5.15;100.00;101259.69;5037415;28;20474;-78
2023/03/04 05:55:30;;;;;;;131.05;85.47;;;;;;;5.07;100.00;101262.28;5036953;28;20049;-78
2023/03/04 05:57:57;;;;;;;127.03;90.57;;;;;;;5.20;100.00;101261.84;5036685;28;20095;-78
2023/03/04 06:00:24;;;;;;;134.30;87.60;;;;;;;5.21;100.00;101263.50;5036947;28;20477;-78
2023/03/04 06:02:51;;;;;;;181.90;109.28;;;;;;;5.10;100.00;101266.41;5036861;28;20061;-78
2023/03/04 06:05:18;;;;;;;228.88;130.93;;;;;;;5.12;100.00;101269.72;5037008;28;20053;-78
2023/03/04 06:07:45;;;;;;;161.82;105.75;;;;;;;5.20;100.00;101272.38;5036638;28;20095;-78
2023/03/04 06:10:16;;;;;;;155.88;99.40;;;;;;;5.33;100.00;101269.31;5036761;28;20057;-78
2023/03/04 06:12:43;;;;;;;164.13;100.32;;;;;;;5.30;100.00;101270.47;5036522;28;20103;-78
2023/03/04 06:15:10;;;;;;;135.73;94.10;;;;;;;5.28;100.00;101270.59;5036531;28;20111;-78
2023/03/04 06:17:38;;;;;;;129.13;92.82;;;;;;;5.37;100.00;101276.75;5036565;28;20473;-78
2023/03/04 06:20:06;;;;;;;133.27;94.55;;;;;;;5.32;100.00;101283.47;5036571;28;20053;-78
2023/03/04 06:22:33;;;;;;;136.02;95.07;;;;;;;5.30;100.00;101274.91;5036408;28;20093;-78
2023/03/04 06:25:00;;;;;;;118.97;85.90;;;;;;;5.44;100.00;101284.81;5036053;28;20553;-78
2023/03/04 06:27:28;;;;;;;115.68;84.65;;;;;;;5.51;100.00;101286.69;5036775;28;20134;-78
2023/03/04 06:29:55;;;;;;;118.53;83.85;;;;;;;5.34;100.00;101284.97;5036853;28;20404;-78
2023/03/04 06:32:22;;;;;;;108.85;75.38;;;;;;;5.46;100.00;101283.69;5036696;28;20524;-78
2023/03/04 06:34:48;;;;;;;110.75;78.88;;;;;;;5.60;100.00;101289.31;5036490;28;20050;-78
2023/03/04 06:37:15;;;;;;;114.35;80.03;;;;;;;5.57;100.00;101293.13;5036425;28;20095;-78
2023/03/04 06:39:42;;;;;;;127.35;85.07;;;;;;;5.50;100.00;101290.28;5035809;28;20049;-78
2023/03/04 06:42:08;;;;;;;114.10;81.32;;;;;;;5.73;100.00;101293.19;5036139;28;20045;-78
2023/03/04 06:44:37;;;;;;;119.78;84.20;;;;;;;5.81;100.00;101295.03;5036385;28;20054;-78
2023/03/04 06:47:03;;;;;;;115.30;86.50;;;;;;;5.73;100.00;101290.53;5036201;28;20076;-78
2023/03/04 06:49:30;;;;;;;292.48;139.27;;;;;;;5.91;100.00;101298.34;5035772;28;20506;-78
2023/03/04 06:51:57;;;;;;;337.10;168.50;;;;;;;5.93;100.00;101296.41;5036271;28;20107;-78
2023/03/04 06:54:23;;;;;;;188.15;117.72;;;;;;;5.92;100.00;101294.72;5036309;28;20053;-78
2023/03/04 06:56:50;;;;;;;152.77;99.53;;;;;;;6.06;100.00;101292.47;5035904;28;20095;-78
2023/03/04 06:59:17;;;;;;;121.20;86.43;;;;;;;6.15;100.00;101296.78;5036034;28;20111;-78
2023/03/04 07:01:45;;;;;;;114.63;86.88;;;;;;;6.36;100.00;101301.59;5034266;28;20053;-78
2023/03/04 07:04:13;;;;;;;98.32;77.20;;;;;;;6.32;100.00;101300.25;5036183;28;20285;-78
2023/03/04 07:06:40;;;;;;;91.90;72.72;;;;;;;6.35;100.00;101303.38;5035697;28;20049;-78
2023/03/04 07:09:07;;;;;;;92.28;73.93;;;;;;;6.46;100.00;101293.50;5035596;28;20053;-78
2023/03/04 07:11:34;;;;;;;90.53;73.05;;;;;;;6.59;100.00;101296.47;5035859;28;20052;-78
2023/03/04 07:14:00;;;;;;;86.03;75.25;;;;;;;6.62;100.00;101291.66;5036022;28;20057;-78
2023/03/04 07:16:27;;;;;;;89.72;79.65;;;;;;;6.73;100.00;101282.59;5035650;28;20045;-78
2023/03/04 07:18:55;;;;;;;84.97;75.78;;;;;;;6.93;100.00;101283.06;5035724;28;20115;-78
2023/03/04 07:21:22;;;;;;;81.80;69.63;;;;;;;7.07;100.00;101277.09;5036415;28;20061;-78
2023/03/04 07:23:49;;;;;;;90.80;75.30;;;;;;;7.88;100.00;101276.91;5035895;28;20049;-78
2023/03/04 07:26:16;;;;;;;92.78;82.68;;;;;;;7.96;100.00;101275.06;5036438;28;20107;-78
2023/03/04 07:28:43;;;;;;;95.07;81.85;;;;;;;8.24;100.00;101275.34;5036109;28;20052;-78
2023/03/04 07:31:13;;;;;;;89.35;78.68;;;;;;;7.96;100.00;101266.31;5036375;28;20431;-78
2023/03/04 07:33:39;;;;;;;82.43;74.13;;;;;;;7.55;100.00;101258.59;5035659;28;20461;-78
2023/03/04 07:36:08;;;;;;;71.13;60.05;;;;;;;7.72;100.00;101262.78;5035044;28;20046;-78
2023/03/04 07:38:35;;;;;;;61.70;54.92;;;;;;;7.81;100.00;101245.06;5035439;28;20046;-78
2023/03/04 07:41:02;;;;;;;74.00;61.70;;;;;;;8.60;100.00;101252.75;5035220;28;20448;-78
2023/03/04 07:43:29;;;;;;;73.10;65.50;;;;;;;8.29;100.00;101247.53;5035808;28;20053;-78
2023/03/04 07:46:00;;;;;;;60.45;50.20;;;;;;;7.58;100.00;101250.31;5035661;28;20053;-78
2023/03/04 07:48:27;;;;;;;61.25;48.97;;;;;;;7.69;100.00;101252.56;5035000;28;20049;-78
2023/03/04 07:51:10;;;;;;;65.07;50.90;;;;;;;8.13;100.00;101244.00;5035739;28;20104;-78
2023/03/04 07:53:38;;;;;;;63.20;52.80;;;;;;;7.63;100.00;101249.81;5035808;28;20404;-78
2023/03/04 07:56:06;;;;;;;64.53;56.13;;;;;;;7.81;100.00;101245.06;5035298;28;20107;-78
2023/03/04 07:58:33;;;;;;;64.22;53.30;;;;;;;7.88;100.00;101253.94;5035192;28;20103;-78
2023/03/04 08:01:00;;;;;;;61.55;51.05;;;;;;;7.61;100.00;101249.13;5034302;28;20088;-78
2023/03/04 08:03:28;;;;;;;58.17;49.95;;;;;;;7.98;100.00;101237.81;5035533;28;20486;-78
2023/03/04 08:05:55;;;;;;;66.80;54.85;;;;;;;8.38;100.00;101239.38;5035120;28;20491;-78
2023/03/04 08:08:23;;;;;;;66.63;59.42;;;;;;;8.31;100.00;101233.13;5035123;28;20107;-78
2023/03/04 08:10:50;;;;;;;56.08;48.47;;;;;;;7.86;100.00;101232.13;5035043;28;20053;-78
2023/03/04 08:13:17;;;;;;;52.05;43.42;;;;;;;7.53;100.00;101228.84;5034419;28;20045;-78
2023/03/04 08:15:43;;;;;;;56.15;43.95;;;;;;;8.17;100.00;101223.28;5035724;28;20050;-78
2023/03/04 08:18:11;;;;;;;56.20;46.95;;;;;;;8.10;100.00;101228.47;5035416;28;20049;-78
2023/03/04 08:20:42;;;;;;;54.47;44.88;;;;;;;7.83;100.00;101229.81;5034843;28;20053;-78
2023/03/04 08:23:08;;;;;;;59.22;44.00;;;;;;;7.82;100.00;101225.53;5034663;28;20115;-78
2023/03/04 08:25:39;;;;;;;53.22;42.83;;;;;;;8.70;100.00;101222.34;5035000;28;20049;-78
2023/03/04 08:28:06;;;;;;;60.90;47.25;;;;;;;8.46;100.00;101223.41;5035053;28;20095;-78
2023/03/04 08:30:32;;;;;;;55.15;43.95;;;;;;;9.45;100.00;101209.09;5035018;28;20045;-78
2023/03/04 08:32:59;;;;;;;49.47;40.60;;;;;;;9.10;100.00;101222.09;5035414;28;20057;-78
2023/03/04 08:35:26;;;;;;;64.85;45.92;;;;;;;8.94;100.00;101213.31;5035925;28;20049;-78
2023/03/04 08:37:52;;;;;;;85.55;69.70;;;;;;;8.87;100.00;101207.13;5036114;28;20049;-78
2023/03/04 08:40:19;;;;;;;58.47;42.50;;;;;;;8.66;100.00;101209.69;5035240;28;20049;-78
2023/03/04 08:42:47;;;;;;;57.88;44.42;;;;;;;9.23;100.00;101211.69;5035600;28;20115;-78
2023/03/04 08:45:14;;;;;;;57.97;44.38;;;;;;;9.27;100.00;101207.66;5035557;28;20461;-78
2023/03/04 08:47:41;;;;;;;46.45;38.13;;;;;;;8.97;100.00;101206.03;5035133;28;20045;-78
2023/03/04 08:50:09;;;;;;;54.92;41.58;;;;;;;8.48;100.00;101210.84;5034893;28;20049;-78
2023/03/04 08:52:36;;;;;;;56.35;40.90;;;;;;;8.66;100.00;101202.56;5035047;28;20430;-78
2023/03/04 08:55:03;;;;;;;60.40;44.83;;;;;;;8.73;100.00;101197.34;5034845;28;20058;-78
2023/03/04 08:57:30;;;;;;;55.90;41.47;;;;;;;7.97;100.00;101205.28;5033942;28;20556;-78
2023/03/04 08:59:58;;;;;;;56.42;42.38;;;;;;;9.12;100.00;101204.19;5034262;28;20111;-78
2023/03/04 09:02:25;;;;;;;56.97;43.13;;;;;;;8.09;100.00;101202.22;5033493;28;20058;-78
2023/03/04 09:04:51;;;;;;;49.97;40.80;;;;;;;8.43;100.00;101191.19;5034298;28;20114;-78
2023/03/04 09:07:18;;;;;;;57.90;41.42;;;;;;;9.28;100.00;101187.25;5033844;28;20050;-78
2023/03/04 09:09:45;;;;;;;50.20;40.38;;;;;;;9.38;100.00;101183.31;5034560;28;20053;-78
2023/03/04 09:12:12;;;;;;;52.35;41.22;;;;;;;10.27;100.00;101180.31;5034847;28;20046;-78
2023/03/04 09:14:38;;;;;;;51.13;37.55;;;;;;;9.32;100.00;101180.56;5034579;28;20053;-78
2023/03/04 09:17:06;;;;;;;54.38;39.42;;;;;;;9.28;100.00;101177.47;5034944;28;20053;-78
2023/03/04 09:19:33;;;;;;;49.65;39.50;;;;;;;9.34;100.00;101171.41;5035166;28;20127;-78
2023/03/04 09:22:00;;;;;;;53.33;42.63;;;;;;;10.73;100.00;101173.66;5035680;28;20478;-78
2023/03/04 09:24:27;;;;;;;52.65;40.15;;;;;;;9.45;100.00;101170.13;5034412;28;20463;-78
2023/03/04 09:26:54;;;;;;;52.95;40.25;;;;;;;9.39;100.00;101171.69;5034796;28;20053;-78
2023/03/04 09:29:22;;;;;;;40.25;34.90;;;;;;;10.13;100.00;101170.56;5034498;28;20132;-78
2023/03/04 09:31:49;;;;;;;51.13;40.72;;;;;;;9.75;100.00;101167.38;5035421;28;20057;-78
2023/03/04 09:34:17;;;;;;;48.40;39.53;;;;;;;12.00;100.00;101158.97;5034787;28;20050;-78
2023/03/04 09:36:43;;;;;;;51.50;39.85;;;;;;;10.47;100.00;101156.56;5035084;28;20057;-78
2023/03/04 09:39:10;;;;;;;53.58;40.75;;;;;;;10.34;100.00;101163.59;5034705;28;20095;-78
2023/03/04 09:41:40;;;;;;;52.50;41.40;;;;;;;9.37;100.00;101159.63;5034047;28;20517;-78
2023/03/04 09:44:16;;;;;;;57.72;41.80;;;;;;;9.20;100.00;101166.16;5034281;28;20049;-78
2023/03/04 09:46:46;;;;;;;57.80;42.63;;;;;;;9.55;100.00;101159.22;5033870;28;20485;-78
2023/03/04 09:49:14;;;;;;;56.38;44.00;;;;;;;10.12;100.00;101149.53;5034061;28;20041;-78
2023/03/04 09:51:53;;;;;;;57.08;42.95;;;;;;;11.85;100.00;101136.00;5034912;28;20099;-78
2023/03/04 09:54:30;;;;;;;54.42;47.00;;;;;;;11.20;100.00;101138.31;5035729;28;20050;-78
2023/03/04 09:57:04;;;;;;;50.72;40.47;;;;;;;11.44;100.00;101130.81;5034998;28;20511;-78
2023/03/04 09:59:41;;;;;;;53.72;40.88;;;;;;;13.07;100.00;101125.72;5035708;28;20045;-78
2023/03/04 10:02:20;;;;;;;45.13;38.85;;;;;;;11.07;100.00;101127.63;5034914;28;20506;-78
2023/03/04 10:04:51;;;;;;;52.75;43.40;;;;;;;10.24;100.00;101134.72;5035346;28;20050;-78
2023/03/04 10:07:24;;;;;;;45.42;37.83;;;;;;;11.18;100.00;101120.91;5034896;28;20053;-78
2023/03/04 10:09:53;;;;;;;;;;;;;;;10.64;100.00;101121.72;5035227;28;20628;-78
2023/03/04 10:12:24;;;;;;;52.90;44.60;;;;;;;11.64;100.00;101125.53;5035040;28;19921;-78
2023/03/04 10:14:56;;;;;;;46.50;39.70;;;;;;;10.99;100.00;101119.84;5035565;28;20049;-78
2023/03/04 10:18:09;;;;;;;53.00;41.40;;;;;;;11.81;100.00;101121.44;5035644;28;20053;-78
2023/03/04 10:20:48;;;;;;;52.00;42.08;;;;;;;12.98;100.00;101116.31;5033486;28;20050;-78
2023/03/04 10:23:21;;;;;;;44.60;39.83;;;;;;;13.75;100.00;101107.28;5037070;28;20054;-78
2023/03/04 10:25:52;;;;;;;;;;;;;;;13.80;100.00;101105.78;5036715;28;20057;-78
2023/03/04 10:28:23;;;;;;;40.22;36.03;;;;;;;12.49;100.00;101093.75;5036501;28;20337;-78
2023/03/04 10:30:55;;;;;;;41.67;37.33;;;;;;;12.64;100.00;101094.31;5035821;28;20499;-79
2023/03/04 10:33:25;;;;;;;44.67;39.20;;;;;;;14.76;100.00;101088.44;5035914;28;20491;-79
2023/03/04 10:36:00;;;;;;;41.15;36.33;;;;;;;12.61;100.00;101089.41;5038662;28;20092;-79
2023/03/04 10:38:30;;;;;;;43.55;38.63;;;;;;;13.37;100.00;101082.50;5039161;28;20171;-78
2023/03/04 10:40:58;;;;;;;38.35;34.22;;;;;;;11.62;100.00;101077.84;5038706;28;20466;-78
2023/03/04 10:43:25;;;;;;;38.08;33.97;;;;;;;13.35;100.00;101068.59;5038091;28;20050;-78
2023/03/04 10:45:55;;;;;;;42.13;37.10;;;;;;;11.96;100.00;101068.03;5038910;28;20116;-78
2023/03/04 10:48:24;;;;;;;42.53;37.90;;;;;;;13.68;100.00;101066.47;5038871;28;20045;-78
2023/03/04 10:50:51;;;;;;;45.50;41.00;;;;;;;13.48;100.00;101063.16;5038551;28;20111;-78
2023/03/04 10:53:36;;;;;;;37.75;33.75;;;;;;;14.00;100.00;101054.91;5038517;28;20045;-78
2023/03/04 10:56:03;;;;;;;37.63;33.60;;;;;;;12.73;100.00;101042.41;5038562;28;20122;-78
2023/03/04 10:58:30;;;;;;;40.40;35.92;;;;;;;13.28;100.00;101041.94;5038865;28;20076;-78
2023/03/04 11:01:03;;;;;;;36.45;32.85;;;;;;;14.88;100.00;101035.81;5038610;28;20096;-78
2023/03/04 11:03:32;;;;;;;34.92;31.42;;;;;;;12.89;100.00;101032.28;5039006;28;20084;-78
2023/03/04 11:06:15;;;;;;;34.33;30.73;;;;;;;14.01;100.00;101022.66;5039002;28;20088;-78